Weather History for KI35 - January, 2013

Change the Weather History Date:

Tuesday, January 22, 2013

  Actual Average (KLOZ) Record (KLOZ)
Temperature  
Mean Temperature 22 °F 36 °F  
Max Temperature 30 °F 45 °F 73 °F (1999)
Min Temperature 15 °F 26 °F -7 °F (1961)
Degree Days  
Heating Degree Days 42 29  
Month to date heating degree days 655  
Since 1 July heating degree days 2307  
Cooling Degree Days 0 0  
Month to date cooling degree days 0  
Year to date cooling degree days 0  
Moisture  
Dew Point -1 °F    
Average Humidity 37    
Maximum Humidity 58    
Minimum Humidity 23    
Precipitation  
Precipitation 0.00 in 0.11 in 2.12 in (1957)
Month to date precipitation 2.50  
Year to date precipitation 2.50  
Sea Level Pressure  
Sea Level Pressure 30.24 in    
Wind  
Wind Speed 9 mph (West)    
Max Wind Speed 18 mph    
Max Gust Speed 22 mph    
Visibility 10 miles    
Events      
T = Trace of Precipitation, MM = Missing Value Source: NWS Daily Summary

Daily Weather History Graph

Daily Weather History Graph

Search for Another Location

Airport or City:

Trip Planner

Search our weather history database for the weather conditions in past years. The results will help you decide how hot, cold, wet, or windy it might be!

Date:

Astronomy

Jan. 22, 2013 Rise Set
Actual Time 7:42 AM EST 5:48 PM EST
Civil Twilight 7:14 AM EST 6:16 PM EST
Nautical Twilight 6:42 AM EST 6:47 PM EST
Astronomical Twilight 6:12 AM EST 7:18 PM EST
Moon 2:11 PM EST (1/22) 4:01 AM EST (1/22)
Length of Visible Light 11h 01m
Length of Day
10h 06m
Waxing Gibbous, 82% of the Moon is Illuminated
Jan 22
Waxing Gibbous
Jan 26
Full
Feb 3
Last Quarter
Feb 10
New
Feb 17
First Quarter

Hourly Weather History & Observations

Time (EST) Temp. Windchill Dew Point Humidity Pressure Visibility Wind Dir Wind Speed Gust Speed Precip Events Conditions
12:15 AM 23.0 °F 13.9 °F 3.2 °F 43% 30.16 in 10.0 mi West 8.1 mph - N/A   Clear
12:35 AM 23.0 °F 13.1 °F 1.4 °F 39% 30.15 in 10.0 mi West 9.2 mph - N/A   Scattered Clouds
12:55 AM 23.0 °F 10.6 °F 1.4 °F 39% 30.16 in 10.0 mi West 13.8 mph 19.6 mph N/A   Scattered Clouds
1:15 AM 23.0 °F 11.1 °F 1.4 °F 39% 30.16 in 10.0 mi West 12.7 mph 20.7 mph N/A   Clear
1:35 AM 21.2 °F 8.9 °F -0.4 °F 39% 30.16 in 10.0 mi West 12.7 mph 21.9 mph N/A   Clear
1:55 AM 21.2 °F 6.4 °F -0.4 °F 39% 30.16 in 10.0 mi West 18.4 mph 21.9 mph N/A   Clear
2:15 AM 21.2 °F 10.9 °F -2.2 °F 36% 30.17 in 10.0 mi West 9.2 mph 17.3 mph N/A   Clear
2:55 AM 21.2 °F 10.9 °F -0.4 °F 39% 30.18 in 10.0 mi WSW 9.2 mph - N/A   Clear
3:15 AM 19.4 °F 7.2 °F -0.4 °F 42% 30.19 in 10.0 mi West 11.5 mph - N/A   Clear
3:35 AM 19.4 °F 9.5 °F 1.4 °F 46% 30.19 in 10.0 mi West 8.1 mph - N/A   Clear
3:55 AM 19.4 °F 10.4 °F 1.4 °F 46% 30.19 in 10.0 mi West 6.9 mph - N/A   Clear
4:15 AM 19.4 °F 11.5 °F 1.4 °F 46% 30.18 in 10.0 mi West 5.8 mph - N/A   Clear
4:35 AM 19.4 °F 10.4 °F 3.2 °F 49% 30.18 in 10.0 mi West 6.9 mph - N/A   Clear
4:55 AM 19.4 °F 10.4 °F 1.4 °F 46% 30.19 in 10.0 mi West 6.9 mph - N/A   Clear
5:15 AM 17.6 °F 7.3 °F -0.4 °F 45% 30.19 in 10.0 mi West 8.1 mph - N/A   Clear
5:35 AM 17.6 °F 9.3 °F 1.4 °F 49% 30.19 in 10.0 mi West 5.8 mph - N/A   Clear
5:55 AM 17.6 °F 10.7 °F 1.4 °F 49% 30.20 in 10.0 mi West 4.6 mph - N/A   Clear
6:15 AM 17.6 °F 8.2 °F 3.2 °F 53% 30.21 in 10.0 mi WNW 6.9 mph - N/A   Clear
6:35 AM 17.6 °F 5.7 °F 3.2 °F 53% 30.22 in 10.0 mi WNW 10.4 mph - N/A   Clear
6:55 AM 17.6 °F 8.2 °F 3.2 °F 53% 30.23 in 10.0 mi West 6.9 mph - N/A   Clear
7:15 AM 17.6 °F 10.7 °F 3.2 °F 53% 30.24 in 10.0 mi West 4.6 mph - N/A   Clear
7:35 AM 17.6 °F 8.2 °F 3.2 °F 53% 30.25 in 10.0 mi NW 6.9 mph - N/A   Clear
7:55 AM 15.8 °F 8.6 °F 3.2 °F 58% 30.26 in 10.0 mi West 4.6 mph - N/A   Clear
8:15 AM 15.8 °F 8.6 °F 3.2 °F 58% 30.26 in 10.0 mi NW 4.6 mph - N/A   Clear
8:35 AM 15.8 °F 6.1 °F 1.4 °F 53% 30.27 in 10.0 mi NW 6.9 mph - N/A   Clear
8:55 AM 17.6 °F 8.2 °F -0.4 °F 45% 30.27 in 10.0 mi WNW 6.9 mph - N/A   Clear
9:15 AM 17.6 °F 8.2 °F -2.2 °F 42% 30.28 in 10.0 mi NW 6.9 mph - N/A   Clear
9:35 AM 19.4 °F 10.4 °F -2.2 °F 39% 30.29 in 10.0 mi WNW 6.9 mph - N/A   Clear
9:55 AM 21.2 °F 14.9 °F -2.2 °F 36% 30.29 in 10.0 mi NW 4.6 mph - N/A   Clear
10:15 AM 21.2 °F - -0.4 °F 39% 30.30 in 10.0 mi Calm Calm - N/A   Clear
10:35 AM 21.2 °F 11.7 °F -4.0 °F 33% 30.30 in 10.0 mi West 8.1 mph - N/A   Clear
10:55 AM 23.0 °F 14.7 °F -4.0 °F 31% 30.30 in 10.0 mi WNW 6.9 mph - N/A   Clear
11:15 AM 23.0 °F 12.4 °F -4.0 °F 31% 30.30 in 10.0 mi NW 10.4 mph - N/A   Clear
11:35 AM 23.0 °F 12.4 °F -4.0 °F 31% 30.30 in 10.0 mi WSW 10.4 mph 16.1 mph N/A   Clear
11:55 AM 23.0 °F 15.8 °F -4.0 °F 31% 30.30 in 10.0 mi WSW 5.8 mph 17.3 mph N/A   Clear
12:15 PM 24.8 °F 15.3 °F -4.0 °F 28% 30.29 in 10.0 mi NW 9.2 mph 20.7 mph N/A   Clear
12:35 PM 26.6 °F 19.1 °F -2.2 °F 29% 30.27 in 10.0 mi West 6.9 mph - N/A   Clear
12:55 PM 26.6 °F 21.2 °F -0.4 °F 31% 30.26 in 10.0 mi WNW 4.6 mph - N/A   Clear
1:15 PM 26.6 °F 16.8 °F -2.2 °F 29% 30.26 in 10.0 mi WNW 10.4 mph 16.1 mph N/A   Clear
1:35 PM 28.4 °F 19.7 °F -2.2 °F 27% 30.24 in 10.0 mi West 9.2 mph - N/A   Clear
1:55 PM 28.4 °F 20.4 °F -2.2 °F 27% 30.23 in 10.0 mi WNW 8.1 mph - N/A   Clear
2:15 PM 28.4 °F 18.0 °F -2.2 °F 27% 30.23 in 10.0 mi West 12.7 mph 20.7 mph N/A   Clear
2:35 PM 28.4 °F 19.1 °F -4.0 °F 25% 30.23 in 10.0 mi West 10.4 mph 17.3 mph N/A   Clear
2:55 PM 28.4 °F 21.2 °F -4.0 °F 25% 30.22 in 10.0 mi West 6.9 mph - N/A   Clear
3:15 PM 28.4 °F 18.5 °F -4.0 °F 25% 30.22 in 10.0 mi WSW 11.5 mph 19.6 mph N/A   Clear
3:35 PM 30.2 °F 22.6 °F -4.0 °F 23% 30.23 in 10.0 mi West 8.1 mph 18.4 mph N/A   Clear
3:55 PM 28.4 °F 18.5 °F -4.0 °F 25% 30.23 in 10.0 mi West 11.5 mph 17.3 mph N/A   Clear
4:15 PM 28.4 °F 18.5 °F -4.0 °F 25% 30.23 in 10.0 mi West 11.5 mph - N/A   Clear
4:35 PM 28.4 °F 19.7 °F -4.0 °F 25% 30.24 in 10.0 mi WNW 9.2 mph - N/A   Mostly Cloudy
4:55 PM 26.6 °F 16.2 °F -4.0 °F 26% 30.25 in 10.0 mi WNW 11.5 mph 21.9 mph N/A   Overcast
5:15 PM 26.6 °F 16.2 °F -4.0 °F 26% 30.24 in 10.0 mi WNW 11.5 mph 17.3 mph N/A   Overcast
5:35 PM 26.6 °F 17.5 °F -2.2 °F 29% 30.24 in 10.0 mi NW 9.2 mph - N/A   Overcast
5:55 PM 26.6 °F 18.2 °F -2.2 °F 29% 30.23 in 10.0 mi West 8.1 mph - N/A   Overcast
6:15 PM 26.6 °F 20.0 °F -4.0 °F 26% 30.24 in 10.0 mi West 5.8 mph - N/A   Overcast
6:35 PM 26.6 °F 18.2 °F -2.2 °F 29% 30.25 in 10.0 mi West 8.1 mph - N/A   Overcast
6:55 PM 26.6 °F 16.8 °F -2.2 °F 29% 30.26 in 10.0 mi West 10.4 mph 16.1 mph N/A   Overcast
7:15 PM 24.8 °F 15.3 °F -2.2 °F 31% 30.26 in 10.0 mi WNW 9.2 mph - N/A   Overcast
7:35 PM 24.8 °F 15.3 °F -4.0 °F 28% 30.25 in 10.0 mi WNW 9.2 mph - N/A   Overcast
7:55 PM 24.8 °F 14.6 °F -2.2 °F 31% 30.25 in 10.0 mi West 10.4 mph 16.1 mph N/A   Overcast
8:15 PM 24.8 °F 16.1 °F -2.2 °F 31% 30.27 in 10.0 mi West 8.1 mph - N/A   Overcast
8:35 PM 24.8 °F 14.6 °F -4.0 °F 28% 30.27 in 10.0 mi WNW 10.4 mph - N/A   Overcast
8:55 PM 23.0 °F 14.7 °F -4.0 °F 31% 30.27 in 10.0 mi WNW 6.9 mph - N/A   Overcast
9:15 PM 23.0 °F 15.8 °F -2.2 °F 33% 30.27 in 10.0 mi WNW 5.8 mph - N/A   Overcast
9:35 PM 23.0 °F 12.4 °F -2.2 °F 33% 30.27 in 10.0 mi WNW 10.4 mph - N/A   Mostly Cloudy
9:55 PM 23.0 °F 15.8 °F -2.2 °F 33% 30.27 in 10.0 mi WNW 5.8 mph - N/A   Overcast
10:15 PM 23.0 °F 15.8 °F -0.4 °F 36% 30.27 in 10.0 mi West 5.8 mph - N/A   Overcast
10:35 PM 23.0 °F 18.4 °F -0.4 °F 36% 30.27 in 10.0 mi West 3.5 mph - N/A   Overcast
10:55 PM 23.0 °F 18.4 °F -0.4 °F 36% 30.27 in 10.0 mi West 3.5 mph - N/A   Overcast
11:15 PM 21.2 °F 16.4 °F -0.4 °F 39% 30.27 in 10.0 mi WNW 3.5 mph - N/A   Scattered Clouds
11:35 PM 21.2 °F - 1.4 °F 42% 30.27 in 10.0 mi Calm Calm - N/A   Mostly Cloudy
11:55 PM 21.2 °F - 3.2 °F 46% 30.27 in 10.0 mi Calm Calm - N/A   Overcast